sensor_id;sensor_type;location;lat;lon;timestamp;temperature;humidity
17423;DHT22;8829;47.932;7.810;2023-10-31T00:00:24;11.30;99.90
17423;DHT22;8829;47.932;7.810;2023-10-31T00:02:50;11.30;99.90
17423;DHT22;8829;47.932;7.810;2023-10-31T00:05:18;11.30;99.90
17423;DHT22;8829;47.932;7.810;2023-10-31T00:07:45;11.20;99.90
17423;DHT22;8829;47.932;7.810;2023-10-31T00:10:12;11.10;99.90
17423;DHT22;8829;47.932;7.810;2023-10-31T00:12:39;11.10;99.90
17423;DHT22;8829;47.932;7.810;2023-10-31T00:15:06;11.10;99.90
17423;DHT22;8829;47.932;7.810;2023-10-31T00:17:33;11.10;99.90
17423;DHT22;8829;47.932;7.810;2023-10-31T00:20:01;11.10;99.90
17423;DHT22;8829;47.932;7.810;2023-10-31T00:22:30;11.10;99.90
17423;DHT22;8829;47.932;7.810;2023-10-31T00:24:56;11.10;99.90
17423;DHT22;8829;47.932;7.810;2023-10-31T00:27:23;11.20;99.90
17423;DHT22;8829;47.932;7.810;2023-10-31T00:29:50;11.20;99.90
17423;DHT22;8829;47.932;7.810;2023-10-31T00:32:16;11.30;99.90
17423;DHT22;8829;47.932;7.810;2023-10-31T00:34:43;11.30;99.90
17423;DHT22;8829;47.932;7.810;2023-10-31T00:37:10;11.40;99.90
17423;DHT22;8829;47.932;7.810;2023-10-31T00:39:38;11.20;99.90
17423;DHT22;8829;47.932;7.810;2023-10-31T00:42:05;11.20;99.90
17423;DHT22;8829;47.932;7.810;2023-10-31T00:44:32;11.10;99.90
17423;DHT22;8829;47.932;7.810;2023-10-31T00:46:59;11.20;99.90
17423;DHT22;8829;47.932;7.810;2023-10-31T00:49:25;11.20;99.90
17423;DHT22;8829;47.932;7.810;2023-10-31T00:51:52;11.20;99.90
17423;DHT22;8829;47.932;7.810;2023-10-31T00:54:19;11.20;99.90
17423;DHT22;8829;47.932;7.810;2023-10-31T00:56:47;11.10;99.90
17423;DHT22;8829;47.932;7.810;2023-10-31T00:59:14;11.20;99.90
17423;DHT22;8829;47.932;7.810;2023-10-31T01:01:42;11.20;99.90
17423;DHT22;8829;47.932;7.810;2023-10-31T01:04:08;11.10;99.90
17423;DHT22;8829;47.932;7.810;2023-10-31T01:06:40;11.20;99.90
17423;DHT22;8829;47.932;7.810;2023-10-31T01:09:07;11.10;99.90
17423;DHT22;8829;47.932;7.810;2023-10-31T01:11:33;11.10;99.90
17423;DHT22;8829;47.932;7.810;2023-10-31T01:14:02;11.10;99.90
17423;DHT22;8829;47.932;7.810;2023-10-31T01:16:29;11.20;99.90
17423;DHT22;8829;47.932;7.810;2023-10-31T01:18:56;11.10;99.90
17423;DHT22;8829;47.932;7.810;2023-10-31T01:21:23;11.10;99.90
17423;DHT22;8829;47.932;7.810;2023-10-31T01:23:50;11.10;99.90
17423;DHT22;8829;47.932;7.810;2023-10-31T01:26:17;11.10;99.90
17423;DHT22;8829;47.932;7.810;2023-10-31T01:28:43;11.10;99.90
17423;DHT22;8829;47.932;7.810;2023-10-31T01:31:11;11.00;99.90
17423;DHT22;8829;47.932;7.810;2023-10-31T01:33:38;11.00;99.90
17423;DHT22;8829;47.932;7.810;2023-10-31T01:36:06;11.00;99.90
17423;DHT22;8829;47.932;7.810;2023-10-31T01:38:32;11.00;99.90
17423;DHT22;8829;47.932;7.810;2023-10-31T01:40:59;10.90;99.90
17423;DHT22;8829;47.932;7.810;2023-10-31T01:43:30;10.90;99.90
17423;DHT22;8829;47.932;7.810;2023-10-31T01:45:57;10.90;99.90
17423;DHT22;8829;47.932;7.810;2023-10-31T01:48:27;10.90;99.90
17423;DHT22;8829;47.932;7.810;2023-10-31T01:50:54;10.90;99.90
17423;DHT22;8829;47.932;7.810;2023-10-31T01:53:22;10.80;99.90
17423;DHT22;8829;47.932;7.810;2023-10-31T01:55:50;10.90;99.90
17423;DHT22;8829;47.932;7.810;2023-10-31T01:58:18;10.80;99.90
17423;DHT22;8829;47.932;7.810;2023-10-31T02:00:46;10.80;99.90
17423;DHT22;8829;47.932;7.810;2023-10-31T02:03:13;10.90;99.90
17423;DHT22;8829;47.932;7.810;2023-10-31T02:05:41;10.90;99.90
17423;DHT22;8829;47.932;7.810;2023-10-31T02:08:09;10.80;99.90
17423;DHT22;8829;47.932;7.810;2023-10-31T02:10:36;10.80;99.90
17423;DHT22;8829;47.932;7.810;2023-10-31T02:13:10;10.80;99.90
17423;DHT22;8829;47.932;7.810;2023-10-31T02:15:37;10.80;99.90
17423;DHT22;8829;47.932;7.810;2023-10-31T02:18:05;10.90;99.90
17423;DHT22;8829;47.932;7.810;2023-10-31T02:20:32;10.80;99.90
17423;DHT22;8829;47.932;7.810;2023-10-31T02:23:00;10.80;99.90
17423;DHT22;8829;47.932;7.810;2023-10-31T02:25:26;10.80;99.90
17423;DHT22;8829;47.932;7.810;2023-10-31T02:27:53;10.80;99.90
17423;DHT22;8829;47.932;7.810;2023-10-31T02:30:20;10.80;99.90
17423;DHT22;8829;47.932;7.810;2023-10-31T02:32:47;10.70;99.90
17423;DHT22;8829;47.932;7.810;2023-10-31T02:35:15;10.80;99.90
17423;DHT22;8829;47.932;7.810;2023-10-31T02:37:43;10.80;99.90
17423;DHT22;8829;47.932;7.810;2023-10-31T02:40:12;10.80;99.90
17423;DHT22;8829;47.932;7.810;2023-10-31T02:42:39;10.90;99.90
17423;DHT22;8829;47.932;7.810;2023-10-31T02:45:06;10.80;99.90
17423;DHT22;8829;47.932;7.810;2023-10-31T02:47:33;10.70;99.90
17423;DHT22;8829;47.932;7.810;2023-10-31T02:50:00;10.70;99.90
17423;DHT22;8829;47.932;7.810;2023-10-31T02:52:27;10.60;99.90
17423;DHT22;8829;47.932;7.810;2023-10-31T02:54:53;10.60;99.90
17423;DHT22;8829;47.932;7.810;2023-10-31T02:57:21;10.70;99.90
17423;DHT22;8829;47.932;7.810;2023-10-31T02:59:48;10.70;99.90
17423;DHT22;8829;47.932;7.810;2023-10-31T03:02:15;10.70;99.90
17423;DHT22;8829;47.932;7.810;2023-10-31T03:04:41;10.70;99.90
17423;DHT22;8829;47.932;7.810;2023-10-31T03:07:08;10.70;99.90
17423;DHT22;8829;47.932;7.810;2023-10-31T03:09:35;10.70;99.90
17423;DHT22;8829;47.932;7.810;2023-10-31T03:12:02;10.60;99.90
17423;DHT22;8829;47.932;7.810;2023-10-31T03:14:30;10.60;99.90
17423;DHT22;8829;47.932;7.810;2023-10-31T03:16:57;10.70;99.90
17423;DHT22;8829;47.932;7.810;2023-10-31T03:19:23;10.70;99.90
17423;DHT22;8829;47.932;7.810;2023-10-31T03:21:50;10.70;99.90
17423;DHT22;8829;47.932;7.810;2023-10-31T03:24:17;10.80;99.90
17423;DHT22;8829;47.932;7.810;2023-10-31T03:26:43;10.80;99.90
17423;DHT22;8829;47.932;7.810;2023-10-31T03:29:10;10.80;99.90
17423;DHT22;8829;47.932;7.810;2023-10-31T03:31:38;10.80;99.90
17423;DHT22;8829;47.932;7.810;2023-10-31T03:34:05;10.70;99.90
17423;DHT22;8829;47.932;7.810;2023-10-31T03:36:31;10.70;99.90
17423;DHT22;8829;47.932;7.810;2023-10-31T03:38:58;10.70;99.90
17423;DHT22;8829;47.932;7.810;2023-10-31T03:41:25;10.70;99.90
17423;DHT22;8829;47.932;7.810;2023-10-31T03:43:51;10.70;99.90
17423;DHT22;8829;47.932;7.810;2023-10-31T03:46:18;10.60;99.90
17423;DHT22;8829;47.932;7.810;2023-10-31T03:48:46;10.60;99.90
17423;DHT22;8829;47.932;7.810;2023-10-31T03:51:13;10.70;99.90
17423;DHT22;8829;47.932;7.810;2023-10-31T03:53:39;10.70;99.90
17423;DHT22;8829;47.932;7.810;2023-10-31T03:56:06;10.70;99.90
17423;DHT22;8829;47.932;7.810;2023-10-31T03:58:33;10.70;99.90
17423;DHT22;8829;47.932;7.810;2023-10-31T04:01:00;10.70;99.90
17423;DHT22;8829;47.932;7.810;2023-10-31T04:03:26;10.70;99.90
17423;DHT22;8829;47.932;7.810;2023-10-31T04:05:54;10.70;99.90
17423;DHT22;8829;47.932;7.810;2023-10-31T04:08:21;10.60;99.90
17423;DHT22;8829;47.932;7.810;2023-10-31T04:10:48;10.70;99.90
17423;DHT22;8829;47.932;7.810;2023-10-31T04:13:14;10.70;99.90
17423;DHT22;8829;47.932;7.810;2023-10-31T04:15:41;10.70;99.90
17423;DHT22;8829;47.932;7.810;2023-10-31T04:18:08;10.70;99.90
17423;DHT22;8829;47.932;7.810;2023-10-31T04:20:34;10.60;99.90
17423;DHT22;8829;47.932;7.810;2023-10-31T04:23:02;10.50;99.90
17423;DHT22;8829;47.932;7.810;2023-10-31T04:25:31;10.60;99.90
17423;DHT22;8829;47.932;7.810;2023-10-31T04:27:57;10.60;99.90
17423;DHT22;8829;47.932;7.810;2023-10-31T04:30:24;10.60;99.90
17423;DHT22;8829;47.932;7.810;2023-10-31T04:32:51;10.50;99.90
17423;DHT22;8829;47.932;7.810;2023-10-31T04:35:18;10.50;99.90
17423;DHT22;8829;47.932;7.810;2023-10-31T04:37:45;10.60;99.90
17423;DHT22;8829;47.932;7.810;2023-10-31T04:40:14;10.60;99.90
17423;DHT22;8829;47.932;7.810;2023-10-31T04:42:41;10.70;99.90
17423;DHT22;8829;47.932;7.810;2023-10-31T04:45:09;10.60;99.90
17423;DHT22;8829;47.932;7.810;2023-10-31T04:47:36;10.60;99.90
17423;DHT22;8829;47.932;7.810;2023-10-31T04:50:03;10.70;99.90
17423;DHT22;8829;47.932;7.810;2023-10-31T04:52:30;10.70;99.90
17423;DHT22;8829;47.932;7.810;2023-10-31T04:54:56;10.70;99.90
17423;DHT22;8829;47.932;7.810;2023-10-31T04:57:24;10.70;99.90
17423;DHT22;8829;47.932;7.810;2023-10-31T04:59:51;10.70;99.90
17423;DHT22;8829;47.932;7.810;2023-10-31T05:02:21;10.70;99.90
17423;DHT22;8829;47.932;7.810;2023-10-31T05:04:48;10.70;99.90
17423;DHT22;8829;47.932;7.810;2023-10-31T05:07:16;10.80;99.90
17423;DHT22;8829;47.932;7.810;2023-10-31T05:09:43;10.80;99.90
17423;DHT22;8829;47.932;7.810;2023-10-31T05:12:10;10.80;99.90
17423;DHT22;8829;47.932;7.810;2023-10-31T05:14:39;10.80;99.90
17423;DHT22;8829;47.932;7.810;2023-10-31T05:17:06;10.90;99.90
17423;DHT22;8829;47.932;7.810;2023-10-31T05:19:33;10.80;99.90
17423;DHT22;8829;47.932;7.810;2023-10-31T05:21:59;10.80;99.90
17423;DHT22;8829;47.932;7.810;2023-10-31T05:24:26;10.80;99.90
17423;DHT22;8829;47.932;7.810;2023-10-31T05:26:53;10.70;99.90
17423;DHT22;8829;47.932;7.810;2023-10-31T05:29:19;10.70;99.90
17423;DHT22;8829;47.932;7.810;2023-10-31T05:31:47;10.80;99.90
17423;DHT22;8829;47.932;7.810;2023-10-31T05:34:14;10.80;99.90
17423;DHT22;8829;47.932;7.810;2023-10-31T05:36:41;10.80;99.90
17423;DHT22;8829;47.932;7.810;2023-10-31T05:39:07;10.80;99.90
17423;DHT22;8829;47.932;7.810;2023-10-31T05:41:35;10.80;99.90
17423;DHT22;8829;47.932;7.810;2023-10-31T05:44:02;10.70;99.90
17423;DHT22;8829;47.932;7.810;2023-10-31T05:46:28;10.70;99.90
17423;DHT22;8829;47.932;7.810;2023-10-31T05:48:57;10.60;99.90
17423;DHT22;8829;47.932;7.810;2023-10-31T05:51:23;10.70;99.90
17423;DHT22;8829;47.932;7.810;2023-10-31T05:53:52;10.70;99.90
17423;DHT22;8829;47.932;7.810;2023-10-31T05:56:18;10.70;99.90
17423;DHT22;8829;47.932;7.810;2023-10-31T05:58:45;10.70;99.90
17423;DHT22;8829;47.932;7.810;2023-10-31T06:01:12;10.70;99.90
17423;DHT22;8829;47.932;7.810;2023-10-31T06:03:41;10.70;99.90
17423;DHT22;8829;47.932;7.810;2023-10-31T06:06:10;10.70;99.90
17423;DHT22;8829;47.932;7.810;2023-10-31T06:08:37;10.70;99.90
17423;DHT22;8829;47.932;7.810;2023-10-31T06:11:04;10.70;99.90
17423;DHT22;8829;47.932;7.810;2023-10-31T06:13:31;10.70;99.90
17423;DHT22;8829;47.932;7.810;2023-10-31T06:15:59;10.70;99.90
17423;DHT22;8829;47.932;7.810;2023-10-31T06:18:26;10.70;99.90
17423;DHT22;8829;47.932;7.810;2023-10-31T06:20:53;10.80;99.90
17423;DHT22;8829;47.932;7.810;2023-10-31T06:23:21;10.70;99.90
17423;DHT22;8829;47.932;7.810;2023-10-31T06:25:48;10.70;99.90
17423;DHT22;8829;47.932;7.810;2023-10-31T06:28:14;10.80;99.90
17423;DHT22;8829;47.932;7.810;2023-10-31T06:30:41;10.80;99.90
17423;DHT22;8829;47.932;7.810;2023-10-31T06:33:08;10.80;99.90
17423;DHT22;8829;47.932;7.810;2023-10-31T06:35:35;10.80;99.90
17423;DHT22;8829;47.932;7.810;2023-10-31T06:38:03;10.90;99.90
17423;DHT22;8829;47.932;7.810;2023-10-31T06:40:31;10.80;99.90
17423;DHT22;8829;47.932;7.810;2023-10-31T06:42:57;10.80;99.90
17423;DHT22;8829;47.932;7.810;2023-10-31T06:45:24;10.80;99.90
17423;DHT22;8829;47.932;7.810;2023-10-31T06:47:51;10.80;99.90
17423;DHT22;8829;47.932;7.810;2023-10-31T06:50:18;10.80;99.90
17423;DHT22;8829;47.932;7.810;2023-10-31T06:52:44;10.90;99.90
17423;DHT22;8829;47.932;7.810;2023-10-31T06:55:11;10.90;99.90
17423;DHT22;8829;47.932;7.810;2023-10-31T06:57:39;10.90;99.90
17423;DHT22;8829;47.932;7.810;2023-10-31T07:00:06;10.80;99.90
17423;DHT22;8829;47.932;7.810;2023-10-31T07:02:34;10.90;99.90
17423;DHT22;8829;47.932;7.810;2023-10-31T07:05:01;10.90;99.90
17423;DHT22;8829;47.932;7.810;2023-10-31T07:07:28;10.90;99.90
17423;DHT22;8829;47.932;7.810;2023-10-31T07:09:55;11.00;99.90
17423;DHT22;8829;47.932;7.810;2023-10-31T07:12:22;11.00;99.90
17423;DHT22;8829;47.932;7.810;2023-10-31T07:14:50;11.00;99.90
17423;DHT22;8829;47.932;7.810;2023-10-31T07:17:17;11.10;99.90
17423;DHT22;8829;47.932;7.810;2023-10-31T07:19:43;11.10;99.90
17423;DHT22;8829;47.932;7.810;2023-10-31T07:22:10;11.20;99.90
17423;DHT22;8829;47.932;7.810;2023-10-31T07:24:37;11.00;99.90
17423;DHT22;8829;47.932;7.810;2023-10-31T07:27:04;11.00;99.90
17423;DHT22;8829;47.932;7.810;2023-10-31T07:29:30;11.00;99.90
17423;DHT22;8829;47.932;7.810;2023-10-31T07:31:58;10.80;99.90
17423;DHT22;8829;47.932;7.810;2023-10-31T07:34:25;10.80;99.90
17423;DHT22;8829;47.932;7.810;2023-10-31T07:36:52;10.90;99.90
17423;DHT22;8829;47.932;7.810;2023-10-31T07:39:19;10.90;99.90
17423;DHT22;8829;47.932;7.810;2023-10-31T07:41:46;11.00;99.90
17423;DHT22;8829;47.932;7.810;2023-10-31T07:44:14;11.00;99.90
17423;DHT22;8829;47.932;7.810;2023-10-31T07:46:40;11.00;99.90
17423;DHT22;8829;47.932;7.810;2023-10-31T07:49:08;11.00;99.90
17423;DHT22;8829;47.932;7.810;2023-10-31T07:51:36;11.10;99.90
17423;DHT22;8829;47.932;7.810;2023-10-31T07:54:03;11.20;99.90
17423;DHT22;8829;47.932;7.810;2023-10-31T07:56:30;11.10;99.90
17423;DHT22;8829;47.932;7.810;2023-10-31T07:58:58;11.20;99.90
17423;DHT22;8829;47.932;7.810;2023-10-31T08:01:25;11.20;99.90
17423;DHT22;8829;47.932;7.810;2023-10-31T08:03:51;11.20;99.90
17423;DHT22;8829;47.932;7.810;2023-10-31T08:06:19;11.20;99.90
17423;DHT22;8829;47.932;7.810;2023-10-31T08:08:46;11.20;99.90
17423;DHT22;8829;47.932;7.810;2023-10-31T08:11:13;11.20;99.90
17423;DHT22;8829;47.932;7.810;2023-10-31T08:13:42;11.20;99.90
17423;DHT22;8829;47.932;7.810;2023-10-31T08:16:09;11.20;99.90
17423;DHT22;8829;47.932;7.810;2023-10-31T08:18:35;11.20;99.90
17423;DHT22;8829;47.932;7.810;2023-10-31T08:21:03;11.20;99.90
17423;DHT22;8829;47.932;7.810;2023-10-31T08:23:31;11.20;99.90
17423;DHT22;8829;47.932;7.810;2023-10-31T08:25:58;11.30;99.90
17423;DHT22;8829;47.932;7.810;2023-10-31T08:28:25;11.20;99.90
17423;DHT22;8829;47.932;7.810;2023-10-31T08:30:51;11.20;99.90
17423;DHT22;8829;47.932;7.810;2023-10-31T08:33:18;11.20;99.90
17423;DHT22;8829;47.932;7.810;2023-10-31T08:35:45;11.20;99.90
17423;DHT22;8829;47.932;7.810;2023-10-31T08:38:13;11.20;99.90
17423;DHT22;8829;47.932;7.810;2023-10-31T08:40:41;11.20;99.90
17423;DHT22;8829;47.932;7.810;2023-10-31T08:43:08;11.20;99.90
17423;DHT22;8829;47.932;7.810;2023-10-31T08:45:34;11.20;99.90
17423;DHT22;8829;47.932;7.810;2023-10-31T08:48:00;11.20;99.90
17423;DHT22;8829;47.932;7.810;2023-10-31T08:50:27;11.20;99.90
17423;DHT22;8829;47.932;7.810;2023-10-31T08:52:54;11.30;99.90
17423;DHT22;8829;47.932;7.810;2023-10-31T08:55:21;11.30;99.90
17423;DHT22;8829;47.932;7.810;2023-10-31T08:57:49;11.30;99.90
17423;DHT22;8829;47.932;7.810;2023-10-31T09:00:18;11.30;99.90
17423;DHT22;8829;47.932;7.810;2023-10-31T09:02:46;11.30;99.90
17423;DHT22;8829;47.932;7.810;2023-10-31T09:05:13;11.50;99.90
17423;DHT22;8829;47.932;7.810;2023-10-31T09:07:39;11.50;99.90
17423;DHT22;8829;47.932;7.810;2023-10-31T09:10:07;11.60;99.90
17423;DHT22;8829;47.932;7.810;2023-10-31T09:12:34;11.60;99.90
17423;DHT22;8829;47.932;7.810;2023-10-31T09:15:03;11.60;99.90
17423;DHT22;8829;47.932;7.810;2023-10-31T09:17:30;11.60;99.90
17423;DHT22;8829;47.932;7.810;2023-10-31T09:19:56;11.70;99.90
17423;DHT22;8829;47.932;7.810;2023-10-31T09:22:24;11.70;99.90
17423;DHT22;8829;47.932;7.810;2023-10-31T09:24:51;11.70;99.90
17423;DHT22;8829;47.932;7.810;2023-10-31T09:27:17;11.70;99.90
17423;DHT22;8829;47.932;7.810;2023-10-31T09:29:44;11.80;99.90
17423;DHT22;8829;47.932;7.810;2023-10-31T09:32:13;11.80;99.90
17423;DHT22;8829;47.932;7.810;2023-10-31T09:34:40;12.00;99.90
17423;DHT22;8829;47.932;7.810;2023-10-31T09:37:07;12.00;99.90
17423;DHT22;8829;47.932;7.810;2023-10-31T09:39:33;12.10;99.90
17423;DHT22;8829;47.932;7.810;2023-10-31T09:42:00;12.20;99.90
17423;DHT22;8829;47.932;7.810;2023-10-31T09:44:27;12.30;99.90
17423;DHT22;8829;47.932;7.810;2023-10-31T09:46:54;12.30;99.90
17423;DHT22;8829;47.932;7.810;2023-10-31T09:49:22;12.30;99.90
17423;DHT22;8829;47.932;7.810;2023-10-31T09:51:49;12.30;99.90
17423;DHT22;8829;47.932;7.810;2023-10-31T09:54:17;12.40;99.90
17423;DHT22;8829;47.932;7.810;2023-10-31T09:56:45;12.50;99.90
17423;DHT22;8829;47.932;7.810;2023-10-31T09:59:14;12.60;99.90
17423;DHT22;8829;47.932;7.810;2023-10-31T10:01:40;12.70;99.90
17423;DHT22;8829;47.932;7.810;2023-10-31T10:04:07;12.80;99.90
17423;DHT22;8829;47.932;7.810;2023-10-31T10:06:35;12.80;99.90
17423;DHT22;8829;47.932;7.810;2023-10-31T10:09:06;12.80;99.90
17423;DHT22;8829;47.932;7.810;2023-10-31T10:11:34;12.80;99.90
17423;DHT22;8829;47.932;7.810;2023-10-31T10:14:00;12.80;99.90
17423;DHT22;8829;47.932;7.810;2023-10-31T10:16:29;12.80;99.90
17423;DHT22;8829;47.932;7.810;2023-10-31T10:18:56;12.90;99.90
17423;DHT22;8829;47.932;7.810;2023-10-31T10:21:23;12.90;99.90
17423;DHT22;8829;47.932;7.810;2023-10-31T10:23:52;12.90;99.90
17423;DHT22;8829;47.932;7.810;2023-10-31T10:26:19;12.90;99.90
17423;DHT22;8829;47.932;7.810;2023-10-31T10:28:51;12.90;99.90
17423;DHT22;8829;47.932;7.810;2023-10-31T10:31:18;13.10;99.90
17423;DHT22;8829;47.932;7.810;2023-10-31T10:33:45;13.10;99.90
17423;DHT22;8829;47.932;7.810;2023-10-31T10:36:12;13.10;99.90
17423;DHT22;8829;47.932;7.810;2023-10-31T10:38:43;13.00;99.90
17423;DHT22;8829;47.932;7.810;2023-10-31T10:41:14;12.90;99.90
17423;DHT22;8829;47.932;7.810;2023-10-31T10:43:44;13.00;99.90
17423;DHT22;8829;47.932;7.810;2023-10-31T10:46:15;13.00;99.90
17423;DHT22;8829;47.932;7.810;2023-10-31T10:48:46;12.90;99.90
17423;DHT22;8829;47.932;7.810;2023-10-31T10:51:21;12.90;99.90
17423;DHT22;8829;47.932;7.810;2023-10-31T10:53:49;12.90;99.90
17423;DHT22;8829;47.932;7.810;2023-10-31T10:56:22;12.80;99.90
17423;DHT22;8829;47.932;7.810;2023-10-31T10:58:55;12.70;99.90
17423;DHT22;8829;47.932;7.810;2023-10-31T11:01:25;12.70;99.90
17423;DHT22;8829;47.932;7.810;2023-10-31T11:03:54;12.60;99.90
17423;DHT22;8829;47.932;7.810;2023-10-31T11:06:21;12.70;99.90
17423;DHT22;8829;47.932;7.810;2023-10-31T11:08:49;12.70;99.90
17423;DHT22;8829;47.932;7.810;2023-10-31T11:11:20;12.80;99.90
17423;DHT22;8829;47.932;7.810;2023-10-31T11:13:49;12.90;99.90
17423;DHT22;8829;47.932;7.810;2023-10-31T11:16:30;13.00;99.90
17423;DHT22;8829;47.932;7.810;2023-10-31T11:19:00;12.90;99.90
17423;DHT22;8829;47.932;7.810;2023-10-31T11:21:28;12.90;99.90
17423;DHT22;8829;47.932;7.810;2023-10-31T11:23:58;12.80;99.90
17423;DHT22;8829;47.932;7.810;2023-10-31T11:26:27;12.70;99.90
17423;DHT22;8829;47.932;7.810;2023-10-31T11:29:03;12.70;99.90
17423;DHT22;8829;47.932;7.810;2023-10-31T11:31:30;12.60;99.90
17423;DHT22;8829;47.932;7.810;2023-10-31T11:34:00;12.60;99.90
17423;DHT22;8829;47.932;7.810;2023-10-31T11:36:30;12.60;99.90
17423;DHT22;8829;47.932;7.810;2023-10-31T11:39:10;12.70;99.90
17423;DHT22;8829;47.932;7.810;2023-10-31T11:41:40;12.70;99.90
17423;DHT22;8829;47.932;7.810;2023-10-31T11:44:06;12.70;99.90
17423;DHT22;8829;47.932;7.810;2023-10-31T11:46:33;12.70;99.90
17423;DHT22;8829;47.932;7.810;2023-10-31T11:49:00;12.70;99.90
17423;DHT22;8829;47.932;7.810;2023-10-31T11:51:27;12.70;99.90
17423;DHT22;8829;47.932;7.810;2023-10-31T11:53:54;12.60;99.90
17423;DHT22;8829;47.932;7.810;2023-10-31T11:56:22;12.70;99.90
17423;DHT22;8829;47.932;7.810;2023-10-31T11:58:58;12.70;99.90
17423;DHT22;8829;47.932;7.810;2023-10-31T12:01:25;12.60;99.90
17423;DHT22;8829;47.932;7.810;2023-10-31T12:03:52;12.40;99.90
17423;DHT22;8829;47.932;7.810;2023-10-31T12:06:19;12.30;99.90
17423;DHT22;8829;47.932;7.810;2023-10-31T12:08:48;12.30;99.90
17423;DHT22;8829;47.932;7.810;2023-10-31T12:11:16;12.50;99.90
17423;DHT22;8829;47.932;7.810;2023-10-31T12:13:52;12.60;99.90
17423;DHT22;8829;47.932;7.810;2023-10-31T12:16:23;12.70;99.90
17423;DHT22;8829;47.932;7.810;2023-10-31T12:18:54;12.80;99.90
17423;DHT22;8829;47.932;7.810;2023-10-31T12:21:34;12.80;99.90
17423;DHT22;8829;47.932;7.810;2023-10-31T12:24:05;12.80;99.90
17423;DHT22;8829;47.932;7.810;2023-10-31T12:26:32;12.80;99.90
17423;DHT22;8829;47.932;7.810;2023-10-31T12:29:07;12.60;99.90
17423;DHT22;8829;47.932;7.810;2023-10-31T12:31:39;12.60;99.90
17423;DHT22;8829;47.932;7.810;2023-10-31T12:34:06;12.50;99.90
17423;DHT22;8829;47.932;7.810;2023-10-31T12:36:34;12.40;99.90
17423;DHT22;8829;47.932;7.810;2023-10-31T12:39:01;12.30;99.90
17423;DHT22;8829;47.932;7.810;2023-10-31T12:41:28;12.30;99.90
17423;DHT22;8829;47.932;7.810;2023-10-31T12:43:55;12.20;99.90
17423;DHT22;8829;47.932;7.810;2023-10-31T12:46:27;12.10;99.90
17423;DHT22;8829;47.932;7.810;2023-10-31T12:48:56;12.10;99.90
17423;DHT22;8829;47.932;7.810;2023-10-31T12:51:22;12.00;99.90
17423;DHT22;8829;47.932;7.810;2023-10-31T12:53:49;12.00;99.90
17423;DHT22;8829;47.932;7.810;2023-10-31T12:56:40;11.80;99.90
17423;DHT22;8829;47.932;7.810;2023-10-31T12:59:08;11.70;99.90
17423;DHT22;8829;47.932;7.810;2023-10-31T13:01:35;11.70;99.90
17423;DHT22;8829;47.932;7.810;2023-10-31T13:04:04;11.60;99.90
17423;DHT22;8829;47.932;7.810;2023-10-31T13:06:32;11.70;99.90
17423;DHT22;8829;47.932;7.810;2023-10-31T13:08:58;11.80;99.90
17423;DHT22;8829;47.932;7.810;2023-10-31T13:11:29;11.80;99.90
17423;DHT22;8829;47.932;7.810;2023-10-31T13:13:56;11.80;99.90
17423;DHT22;8829;47.932;7.810;2023-10-31T13:16:23;11.60;99.90
17423;DHT22;8829;47.932;7.810;2023-10-31T13:18:49;11.60;99.90
17423;DHT22;8829;47.932;7.810;2023-10-31T13:21:18;11.60;99.90
17423;DHT22;8829;47.932;7.810;2023-10-31T13:23:45;11.60;99.90
17423;DHT22;8829;47.932;7.810;2023-10-31T13:26:13;11.60;99.90
17423;DHT22;8829;47.932;7.810;2023-10-31T13:28:40;11.60;99.90
17423;DHT22;8829;47.932;7.810;2023-10-31T13:31:08;11.60;99.90
17423;DHT22;8829;47.932;7.810;2023-10-31T13:33:36;11.60;99.90
17423;DHT22;8829;47.932;7.810;2023-10-31T13:36:04;11.60;99.90
17423;DHT22;8829;47.932;7.810;2023-10-31T13:38:32;11.70;99.90
17423;DHT22;8829;47.932;7.810;2023-10-31T13:40:58;11.60;99.90
17423;DHT22;8829;47.932;7.810;2023-10-31T13:43:26;11.60;99.90
17423;DHT22;8829;47.932;7.810;2023-10-31T13:45:53;11.60;99.90
17423;DHT22;8829;47.932;7.810;2023-10-31T13:48:20;11.60;99.90
17423;DHT22;8829;47.932;7.810;2023-10-31T13:50:48;11.60;99.90
17423;DHT22;8829;47.932;7.810;2023-10-31T13:53:15;11.60;99.90
17423;DHT22;8829;47.932;7.810;2023-10-31T13:55:44;11.60;99.90
17423;DHT22;8829;47.932;7.810;2023-10-31T13:58:11;11.60;99.90
17423;DHT22;8829;47.932;7.810;2023-10-31T14:00:39;11.60;99.90
17423;DHT22;8829;47.932;7.810;2023-10-31T14:03:06;11.80;99.90
17423;DHT22;8829;47.932;7.810;2023-10-31T14:05:33;11.80;99.90
17423;DHT22;8829;47.932;7.810;2023-10-31T14:08:00;11.80;99.90
17423;DHT22;8829;47.932;7.810;2023-10-31T14:10:26;11.80;99.90
17423;DHT22;8829;47.932;7.810;2023-10-31T14:12:54;11.80;99.90
17423;DHT22;8829;47.932;7.810;2023-10-31T14:15:21;11.80;99.90
17423;DHT22;8829;47.932;7.810;2023-10-31T14:17:48;11.80;99.90
17423;DHT22;8829;47.932;7.810;2023-10-31T14:20:15;11.80;99.90
17423;DHT22;8829;47.932;7.810;2023-10-31T14:22:47;11.80;99.90
17423;DHT22;8829;47.932;7.810;2023-10-31T14:25:14;11.90;99.90
17423;DHT22;8829;47.932;7.810;2023-10-31T14:27:42;12.00;99.90
17423;DHT22;8829;47.932;7.810;2023-10-31T14:30:11;12.00;99.90
17423;DHT22;8829;47.932;7.810;2023-10-31T14:32:39;12.00;99.90
17423;DHT22;8829;47.932;7.810;2023-10-31T14:35:06;12.00;99.90
17423;DHT22;8829;47.932;7.810;2023-10-31T14:37:33;12.10;99.90
17423;DHT22;8829;47.932;7.810;2023-10-31T14:40:00;12.10;99.90
17423;DHT22;8829;47.932;7.810;2023-10-31T14:42:29;12.00;99.90
17423;DHT22;8829;47.932;7.810;2023-10-31T14:44:56;12.00;99.90
17423;DHT22;8829;47.932;7.810;2023-10-31T14:47:24;12.00;99.90
17423;DHT22;8829;47.932;7.810;2023-10-31T14:49:51;11.90;99.90
17423;DHT22;8829;47.932;7.810;2023-10-31T14:52:17;11.80;99.90
17423;DHT22;8829;47.932;7.810;2023-10-31T14:54:44;11.80;99.90
17423;DHT22;8829;47.932;7.810;2023-10-31T14:57:11;11.70;99.90
17423;DHT22;8829;47.932;7.810;2023-10-31T14:59:39;11.70;99.90
17423;DHT22;8829;47.932;7.810;2023-10-31T15:02:06;11.60;99.90
17423;DHT22;8829;47.932;7.810;2023-10-31T15:04:34;11.70;99.90
17423;DHT22;8829;47.932;7.810;2023-10-31T15:07:01;11.60;99.90
17423;DHT22;8829;47.932;7.810;2023-10-31T15:09:27;11.60;99.90
17423;DHT22;8829;47.932;7.810;2023-10-31T15:11:54;11.60;99.90
17423;DHT22;8829;47.932;7.810;2023-10-31T15:14:21;11.60;99.90
17423;DHT22;8829;47.932;7.810;2023-10-31T15:16:48;11.70;99.90
17423;DHT22;8829;47.932;7.810;2023-10-31T15:19:14;11.80;99.90
17423;DHT22;8829;47.932;7.810;2023-10-31T15:21:42;11.80;99.90
17423;DHT22;8829;47.932;7.810;2023-10-31T15:24:09;11.70;99.90
17423;DHT22;8829;47.932;7.810;2023-10-31T15:26:38;11.70;99.90
17423;DHT22;8829;47.932;7.810;2023-10-31T15:29:05;11.60;99.90
17423;DHT22;8829;47.932;7.810;2023-10-31T15:31:32;11.60;99.90
17423;DHT22;8829;47.932;7.810;2023-10-31T15:33:59;11.60;99.90
17423;DHT22;8829;47.932;7.810;2023-10-31T15:36:26;11.50;99.90
17423;DHT22;8829;47.932;7.810;2023-10-31T15:38:55;11.50;99.90
17423;DHT22;8829;47.932;7.810;2023-10-31T15:41:22;11.50;99.90
17423;DHT22;8829;47.932;7.810;2023-10-31T15:43:48;11.40;99.90
17423;DHT22;8829;47.932;7.810;2023-10-31T15:46:15;11.40;99.90